createdAt,value
2022-09-28T00:01:02.190Z,9.20
2022-09-28T00:03:30.107Z,9.20
2022-09-28T00:06:03.195Z,9.20
2022-09-28T00:08:31.133Z,9.20
2022-09-28T00:11:00.373Z,9.30
2022-09-28T00:13:29.465Z,9.30
2022-09-28T00:16:02.084Z,9.30
2022-09-28T00:18:29.998Z,9.30
2022-09-28T00:21:02.234Z,9.20
2022-09-28T00:23:30.147Z,9.30
2022-09-28T00:26:02.137Z,9.20
2022-09-28T00:28:32.846Z,9.30
2022-09-28T00:31:01.103Z,9.20
2022-09-28T00:33:28.964Z,9.30
2022-09-28T00:35:58.286Z,9.30
2022-09-28T00:38:30.198Z,9.30
2022-09-28T00:40:59.579Z,9.30
2022-09-28T00:43:28.057Z,9.30
2022-09-28T00:46:03.189Z,9.30
2022-09-28T00:48:35.026Z,9.30
2022-09-28T00:51:07.219Z,9.30
2022-09-28T00:53:37.783Z,9.30
2022-09-28T00:56:11.131Z,9.30
2022-09-28T00:58:46.526Z,9.30
2022-09-28T01:01:16.119Z,9.30
2022-09-28T01:03:45.425Z,9.30
2022-09-28T01:06:18.940Z,9.30
2022-09-28T01:08:50.529Z,9.30
2022-09-28T01:11:18.594Z,9.30
2022-09-28T01:13:48.980Z,9.30
2022-09-28T01:16:28.731Z,9.30
2022-09-28T01:19:02.510Z,9.30
2022-09-28T01:21:30.872Z,9.30
2022-09-28T01:24:35.410Z,9.20
2022-09-28T01:27:14.441Z,9.20
2022-09-28T01:29:48.502Z,9.20
2022-09-28T01:32:27.136Z,9.20
2022-09-28T01:34:59.664Z,9.20
2022-09-28T01:37:34.743Z,9.20
2022-09-28T01:40:05.766Z,9.20
2022-09-28T01:42:38.321Z,9.20
2022-09-28T01:45:11.454Z,9.10
2022-09-28T01:47:41.522Z,9.10
2022-09-28T01:50:13.947Z,9.10
2022-09-28T01:52:48.271Z,9.10
2022-09-28T01:55:22.012Z,9.10
2022-09-28T01:57:56.160Z,9.10
2022-09-28T02:00:26.083Z,9.10
2022-09-28T02:03:00.319Z,9.10
2022-09-28T02:05:33.378Z,9.10
2022-09-28T02:08:07.827Z,9.10
2022-09-28T02:10:41.382Z,9.10
2022-09-28T02:13:15.278Z,9.10
2022-09-28T02:15:47.428Z,9.10
2022-09-28T02:18:15.551Z,9.10
2022-09-28T02:20:48.320Z,9.10
2022-09-28T02:23:17.829Z,9.10
2022-09-28T02:25:49.808Z,9.10
2022-09-28T02:28:19.098Z,9.10
2022-09-28T02:30:47.224Z,9.10
2022-09-28T02:33:19.760Z,9.10
2022-09-28T02:35:48.070Z,9.20
2022-09-28T02:38:16.222Z,9.20
2022-09-28T02:40:49.618Z,9.20
2022-09-28T02:43:24.474Z,9.20
2022-09-28T02:46:02.622Z,9.20
2022-09-28T02:48:47.213Z,9.20
2022-09-28T02:51:28.910Z,9.20
2022-09-28T02:54:25.205Z,9.20
2022-09-28T02:57:10.821Z,9.20
2022-09-28T02:59:50.446Z,9.20
2022-09-28T03:02:26.493Z,9.20
2022-09-28T03:05:07.301Z,9.30
2022-09-28T03:07:39.434Z,9.30
2022-09-28T03:10:14.843Z,9.30
2022-09-28T03:12:44.349Z,9.30
2022-09-28T03:15:20.144Z,9.30
2022-09-28T03:17:48.127Z,9.30
2022-09-28T03:20:16.302Z,9.40
2022-09-28T03:23:00.261Z,9.30
2022-09-28T03:25:32.686Z,9.30
2022-09-28T03:28:00.581Z,9.30
2022-09-28T03:30:29.901Z,9.30
2022-09-28T03:33:02.485Z,9.30
2022-09-28T03:35:30.340Z,9.30
2022-09-28T03:37:58.673Z,9.30
2022-09-28T03:40:26.651Z,9.30
2022-09-28T03:42:54.984Z,9.30
2022-09-28T03:45:22.900Z,9.30
2022-09-28T03:47:52.459Z,9.40
2022-09-28T03:50:20.368Z,9.40
2022-09-28T03:52:48.280Z,9.40
2022-09-28T03:55:16.324Z,9.40
2022-09-28T03:57:44.641Z,9.40
2022-09-28T04:00:14.267Z,9.40
2022-09-28T04:02:42.104Z,9.40
2022-09-28T04:05:11.376Z,9.40
2022-09-28T04:07:39.219Z,9.40
2022-09-28T04:10:08.038Z,9.40
2022-09-28T04:12:35.876Z,9.50
2022-09-28T04:15:03.820Z,9.50
2022-09-28T04:17:35.483Z,9.50
2022-09-28T04:20:07.092Z,9.50
2022-09-28T04:22:37.610Z,9.50
2022-09-28T04:25:06.421Z,9.50
2022-09-28T04:27:52.029Z,9.50
2022-09-28T04:30:20.052Z,9.50
2022-09-28T04:32:48.324Z,9.50
2022-09-28T04:35:16.516Z,9.50
2022-09-28T04:37:45.702Z,9.50
2022-09-28T04:40:13.536Z,9.50
2022-09-28T04:42:41.486Z,9.40
2022-09-28T04:45:10.535Z,9.40
2022-09-28T04:47:38.398Z,9.40
2022-09-28T04:50:06.991Z,9.40
2022-09-28T04:52:37.299Z,9.40
2022-09-28T04:55:07.588Z,9.40
2022-09-28T04:57:35.878Z,9.40
2022-09-28T05:00:05.304Z,9.40
2022-09-28T05:02:33.552Z,9.40
2022-09-28T05:05:01.539Z,9.40
2022-09-28T05:07:31.126Z,9.40
2022-09-28T05:09:59.299Z,9.40
2022-09-28T05:12:28.504Z,9.40
2022-09-28T05:14:56.573Z,9.40
2022-09-28T05:17:24.795Z,9.40
2022-09-28T05:19:52.613Z,9.40
2022-09-28T05:22:20.520Z,9.30
2022-09-28T05:24:48.425Z,9.30
2022-09-28T05:27:16.402Z,9.30
2022-09-28T05:29:45.621Z,9.30
2022-09-28T05:32:13.489Z,9.30
2022-09-28T05:34:41.375Z,9.30
2022-09-28T05:37:09.268Z,9.30
2022-09-28T05:39:37.134Z,9.30
2022-09-28T05:42:05.033Z,9.30
2022-09-28T05:44:32.916Z,9.30
2022-09-28T05:47:02.147Z,9.40
2022-09-28T05:49:31.693Z,9.40
2022-09-28T05:51:59.618Z,9.40
2022-09-28T05:54:27.484Z,9.40
2022-09-28T05:56:55.353Z,9.40
2022-09-28T05:59:23.232Z,9.40
2022-09-28T06:01:51.084Z,9.40
2022-09-28T06:04:20.865Z,9.40
2022-09-28T06:06:48.835Z,9.50
2022-09-28T06:09:16.710Z,9.50
2022-09-28T06:11:44.574Z,9.50
2022-09-28T06:14:13.686Z,9.50
2022-09-28T06:16:43.862Z,9.50
2022-09-28T06:19:13.013Z,9.50
2022-09-28T06:21:42.251Z,9.50
2022-09-28T06:24:10.208Z,9.60
2022-09-28T06:26:40.221Z,9.60
2022-09-28T06:29:08.256Z,9.60
2022-09-28T06:31:36.457Z,9.60
2022-09-28T06:34:04.343Z,9.70
2022-09-28T06:36:32.326Z,9.70
2022-09-28T06:39:01.528Z,9.70
2022-09-28T06:41:29.414Z,9.70
2022-09-28T06:43:57.331Z,9.70
2022-09-28T06:46:25.470Z,9.70
2022-09-28T06:48:54.563Z,9.70
2022-09-28T06:51:22.449Z,9.80
2022-09-28T06:53:53.795Z,9.80
2022-09-28T06:56:23.010Z,9.80
2022-09-28T06:58:50.859Z,9.90
2022-09-28T07:01:18.826Z,9.90
2022-09-28T07:03:46.820Z,10.00
2022-09-28T07:06:14.683Z,10.00
2022-09-28T07:08:42.597Z,10.00
2022-09-28T07:11:11.091Z,10.10
2022-09-28T07:13:50.753Z,10.10
2022-09-28T07:16:24.121Z,10.20
2022-09-28T07:18:54.497Z,10.20
2022-09-28T07:21:29.583Z,10.20
2022-09-28T07:23:59.901Z,10.20
2022-09-28T07:26:27.824Z,10.30
2022-09-28T07:28:56.993Z,10.40
2022-09-28T07:31:26.153Z,10.40
2022-09-28T07:33:54.989Z,10.40
2022-09-28T07:36:23.406Z,10.40
2022-09-28T07:38:51.448Z,10.50
2022-09-28T07:41:26.914Z,10.50
2022-09-28T07:43:56.110Z,10.50
2022-09-28T07:46:24.010Z,10.60
2022-09-28T07:48:52.667Z,10.60
2022-09-28T07:51:21.310Z,10.70
2022-09-28T07:53:49.180Z,10.70
2022-09-28T07:56:20.346Z,10.70
2022-09-28T07:58:48.825Z,10.80
2022-09-28T08:01:19.207Z,10.80
2022-09-28T08:03:48.060Z,11.00
2022-09-28T08:06:17.635Z,11.10
2022-09-28T08:08:46.001Z,11.20
2022-09-28T08:11:15.451Z,11.30
2022-09-28T08:13:43.994Z,11.40
2022-09-28T08:16:12.476Z,11.50
2022-09-28T08:18:41.796Z,11.50
2022-09-28T08:21:29.172Z,11.60
2022-09-28T08:23:57.501Z,11.60
2022-09-28T08:26:25.713Z,11.60
2022-09-28T08:28:53.613Z,11.60
2022-09-28T08:31:21.646Z,11.60
2022-09-28T08:33:53.651Z,11.70
2022-09-28T08:36:21.718Z,11.70
2022-09-28T08:38:49.601Z,11.70
2022-09-28T08:41:24.067Z,11.90
2022-09-28T08:44:12.043Z,12.00
2022-09-28T08:46:43.732Z,12.20
2022-09-28T08:49:27.223Z,12.30
2022-09-28T08:52:00.517Z,12.30
2022-09-28T08:54:38.960Z,12.30
2022-09-28T08:57:12.374Z,12.30
2022-09-28T08:59:47.849Z,12.30
2022-09-28T09:02:20.869Z,12.40
2022-09-28T09:04:51.566Z,12.50
2022-09-28T09:07:48.878Z,12.60
2022-09-28T09:10:36.343Z,12.70
2022-09-28T09:13:12.397Z,12.90
2022-09-28T09:15:48.867Z,13.00
2022-09-28T09:18:25.353Z,13.10
2022-09-28T09:20:57.535Z,13.20
2022-09-28T09:23:37.147Z,13.30
2022-09-28T09:26:14.209Z,13.40
2022-09-28T09:29:14.686Z,13.60
2022-09-28T09:32:03.036Z,13.80
2022-09-28T09:34:53.170Z,13.80
2022-09-28T09:37:34.434Z,13.90
2022-09-28T09:40:26.143Z,13.90
2022-09-28T09:43:05.990Z,13.90
2022-09-28T09:45:47.824Z,13.90
2022-09-28T09:48:20.677Z,13.90
2022-09-28T09:50:52.111Z,14.10
2022-09-28T09:53:28.805Z,14.20
2022-09-28T09:56:02.216Z,14.30
2022-09-28T09:58:34.981Z,14.40
2022-09-28T10:01:09.018Z,14.50
2022-09-28T10:03:42.084Z,14.50
2022-09-28T10:06:14.984Z,14.60
2022-09-28T10:08:49.299Z,14.80
2022-09-28T10:11:21.619Z,15.00
2022-09-28T10:13:49.653Z,15.20
2022-09-28T10:16:19.572Z,15.30
2022-09-28T10:18:49.513Z,15.30
2022-09-28T10:21:19.470Z,15.30
2022-09-28T10:23:54.172Z,15.30
2022-09-28T10:26:26.584Z,15.20
2022-09-28T10:28:58.660Z,15.20
2022-09-28T10:31:41.728Z,15.10
2022-09-28T10:34:14.123Z,15.10
2022-09-28T10:37:12.757Z,15.20
2022-09-28T10:39:47.701Z,15.60
2022-09-28T10:42:21.346Z,16.40
2022-09-28T10:44:53.879Z,18.10
2022-09-28T10:47:24.336Z,20.30
2022-09-28T10:49:54.712Z,22.10
2022-09-28T10:52:38.140Z,23.50
2022-09-28T10:55:28.525Z,24.70
2022-09-28T10:57:56.738Z,24.50
2022-09-28T11:00:34.736Z,24.20
2022-09-28T11:03:03.311Z,23.80
2022-09-28T11:05:31.280Z,23.40
2022-09-28T11:08:01.564Z,23.20
2022-09-28T11:10:32.714Z,22.90
2022-09-28T11:13:01.693Z,22.90
2022-09-28T11:15:32.462Z,23.90
2022-09-28T11:18:19.943Z,24.80
2022-09-28T11:20:49.497Z,24.70
2022-09-28T11:23:21.354Z,24.00
2022-09-28T11:26:03.102Z,23.30
2022-09-28T11:28:33.528Z,22.40
2022-09-28T11:31:03.184Z,21.70
2022-09-28T11:33:34.148Z,20.80
2022-09-28T11:36:14.729Z,20.10
2022-09-28T11:38:49.492Z,19.60
2022-09-28T11:41:32.515Z,19.20
2022-09-28T11:44:23.914Z,18.90
2022-09-28T11:47:05.825Z,18.90
2022-09-28T11:49:39.945Z,18.80
2022-09-28T11:52:14.644Z,18.70
2022-09-28T11:54:47.381Z,18.70
2022-09-28T11:57:22.998Z,18.70
2022-09-28T11:59:59.290Z,18.50
2022-09-28T12:02:32.978Z,18.40
2022-09-28T12:05:15.817Z,18.20
2022-09-28T12:07:49.649Z,18.00
2022-09-28T12:10:21.493Z,17.70
2022-09-28T12:12:55.446Z,17.60
2022-09-28T12:15:27.881Z,17.50
2022-09-28T12:18:01.594Z,17.50
2022-09-28T12:20:33.592Z,17.40
2022-09-28T12:23:06.029Z,17.40
2022-09-28T12:25:46.188Z,17.40
2022-09-28T12:28:24.051Z,17.20
2022-09-28T12:30:53.671Z,17.20
2022-09-28T12:33:21.753Z,17.10
2022-09-28T12:36:05.291Z,17.00
2022-09-28T12:38:50.832Z,16.90
2022-09-28T12:41:40.224Z,16.80
2022-09-28T12:44:28.655Z,16.70
2022-09-28T12:47:17.352Z,16.50
2022-09-28T12:53:00.700Z,16.20
2022-09-28T12:55:56.559Z,16.00
2022-09-28T12:58:44.659Z,15.90
2022-09-28T13:01:32.689Z,15.80
2022-09-28T13:04:13.977Z,15.70
2022-09-28T13:06:52.684Z,15.70
2022-09-28T13:09:23.898Z,15.70
2022-09-28T13:12:06.024Z,15.70
2022-09-28T13:15:01.515Z,15.70
2022-09-28T13:17:44.988Z,15.70
2022-09-28T13:20:38.798Z,15.80
2022-09-28T13:23:15.543Z,15.90
2022-09-28T13:25:50.664Z,15.90
2022-09-28T13:28:26.188Z,16.00
2022-09-28T13:33:36.764Z,16.20
2022-09-28T13:36:05.695Z,16.30
2022-09-28T13:38:55.064Z,16.50
2022-09-28T13:41:33.810Z,16.60
2022-09-28T13:44:44.558Z,16.60
2022-09-28T13:47:26.414Z,16.60
2022-09-28T13:50:11.570Z,16.60
2022-09-28T13:52:48.447Z,16.50
2022-09-28T13:55:27.337Z,16.40
2022-09-28T13:57:58.939Z,16.30
2022-09-28T14:00:31.406Z,16.30
2022-09-28T14:03:12.172Z,16.20
2022-09-28T14:05:53.782Z,16.30
2022-09-28T14:08:31.348Z,16.30
2022-09-28T14:11:34.291Z,16.40
2022-09-28T14:14:24.284Z,16.50
2022-09-28T14:16:59.836Z,16.50
2022-09-28T14:19:32.405Z,16.60
2022-09-28T14:22:09.173Z,16.60
2022-09-28T14:25:02.430Z,16.60
2022-09-28T14:27:51.324Z,16.50
2022-09-28T14:30:26.400Z,16.50
2022-09-28T14:32:57.604Z,16.40
2022-09-28T14:35:31.277Z,16.30
2022-09-28T14:38:21.952Z,16.20
2022-09-28T14:41:10.867Z,16.10
2022-09-28T14:43:59.896Z,16.00
2022-09-28T14:46:34.938Z,16.00
2022-09-28T14:49:04.649Z,16.00
2022-09-28T14:52:06.347Z,15.90
2022-09-28T14:54:49.928Z,15.80
2022-09-28T14:57:20.850Z,15.70
2022-09-28T14:59:48.836Z,15.60
2022-09-28T15:02:32.172Z,15.60
2022-09-28T15:05:10.422Z,15.50
2022-09-28T15:07:48.010Z,15.40
2022-09-28T15:10:27.487Z,15.30
2022-09-28T15:12:57.112Z,15.30
2022-09-28T15:15:38.161Z,15.30
2022-09-28T15:18:22.117Z,15.20
2022-09-28T15:20:50.894Z,15.20
2022-09-28T15:23:27.614Z,15.10
2022-09-28T15:25:56.528Z,15.00
2022-09-28T15:28:25.540Z,14.90
2022-09-28T15:31:00.682Z,14.80
2022-09-28T15:33:49.458Z,14.80
2022-09-28T15:36:21.154Z,14.70
2022-09-28T15:38:56.393Z,14.70
2022-09-28T15:41:25.801Z,14.70
2022-09-28T15:44:27.092Z,14.70
2022-09-28T15:47:06.908Z,14.70
2022-09-28T15:49:41.153Z,14.70
2022-09-28T15:52:26.118Z,14.70
2022-09-28T15:54:55.021Z,14.70
2022-09-28T15:57:36.910Z,14.60
2022-09-28T16:00:08.101Z,14.60
2022-09-28T16:02:36.650Z,14.60
2022-09-28T16:05:39.171Z,14.60
2022-09-28T16:08:14.885Z,14.60
2022-09-28T16:10:56.880Z,14.50
2022-09-28T16:13:24.964Z,14.40
2022-09-28T16:15:59.639Z,14.30
2022-09-28T16:18:29.101Z,14.20
2022-09-28T16:21:21.113Z,14.10
2022-09-28T16:23:52.742Z,14.00
2022-09-28T16:26:32.106Z,13.90
2022-09-28T16:29:02.016Z,13.90
2022-09-28T16:31:34.606Z,13.80
2022-09-28T16:34:11.862Z,13.70
2022-09-28T16:36:46.285Z,13.60
2022-09-28T16:39:16.270Z,13.60
2022-09-28T16:41:47.932Z,13.50
2022-09-28T16:44:23.324Z,13.40
2022-09-28T16:46:53.899Z,13.40
2022-09-28T16:49:22.293Z,13.30
2022-09-28T16:51:51.497Z,13.30
2022-09-28T16:54:39.331Z,13.30
2022-09-28T16:57:10.490Z,13.20
2022-09-28T16:59:38.804Z,13.20
2022-09-28T17:02:45.309Z,13.10
2022-09-28T17:05:11.093Z,13.10
2022-09-28T17:07:41.045Z,13.10
2022-09-28T17:10:18.310Z,13.00
2022-09-28T17:12:46.774Z,13.00
2022-09-28T17:15:15.650Z,12.90
2022-09-28T17:17:43.588Z,12.90
2022-09-28T17:20:21.351Z,12.80
2022-09-28T17:22:50.780Z,12.80
2022-09-28T17:25:19.076Z,12.80
2022-09-28T17:27:48.834Z,12.70
2022-09-28T17:30:17.613Z,12.70
2022-09-28T17:32:47.027Z,12.60
2022-09-28T17:35:25.276Z,12.60
2022-09-28T17:37:54.940Z,12.60
2022-09-28T17:40:24.753Z,12.60
2022-09-28T17:42:55.098Z,12.50
2022-09-28T17:45:28.067Z,12.50
2022-09-28T17:47:57.241Z,12.40
2022-09-28T17:50:27.826Z,12.40
2022-09-28T17:52:59.775Z,12.40
2022-09-28T17:55:31.645Z,12.40
2022-09-28T17:58:00.941Z,12.40
2022-09-28T18:00:29.492Z,12.40
2022-09-28T18:02:58.791Z,12.30
2022-09-28T18:05:28.260Z,12.30
2022-09-28T18:07:58.739Z,12.30
2022-09-28T18:10:27.481Z,12.30
2022-09-28T18:12:55.319Z,12.20
2022-09-28T18:15:23.268Z,12.20
2022-09-28T18:17:51.156Z,12.20
2022-09-28T18:20:19.095Z,12.10
2022-09-28T18:23:08.846Z,12.10
2022-09-28T18:25:53.865Z,12.10
2022-09-28T18:28:22.962Z,12.00
2022-09-28T18:30:52.380Z,12.00
2022-09-28T18:33:20.398Z,12.00
2022-09-28T18:35:52.925Z,12.00
2022-09-28T18:38:21.241Z,12.00
2022-09-28T18:40:50.485Z,11.90
2022-09-28T18:43:18.520Z,12.00
2022-09-28T18:45:47.066Z,11.90
2022-09-28T18:48:14.970Z,11.90
2022-09-28T18:50:43.309Z,11.90
2022-09-28T18:53:13.926Z,11.90
2022-09-28T18:55:43.306Z,11.90
2022-09-28T18:58:13.078Z,11.90
2022-09-28T19:00:42.956Z,11.90
2022-09-28T19:03:14.371Z,11.90
2022-09-28T19:05:43.464Z,11.80
2022-09-28T19:08:11.714Z,11.80
2022-09-28T19:10:39.625Z,11.70
2022-09-28T19:13:07.500Z,11.70
2022-09-28T19:15:36.707Z,11.60
2022-09-28T19:18:04.949Z,11.50
2022-09-28T19:20:33.886Z,11.50
2022-09-28T19:23:02.096Z,11.40
2022-09-28T19:25:30.124Z,11.30
2022-09-28T19:27:57.994Z,11.20
2022-09-28T19:30:25.963Z,11.10
2022-09-28T19:32:55.331Z,11.10
2022-09-28T19:35:23.202Z,10.90
2022-09-28T19:37:51.430Z,10.90
2022-09-28T19:40:19.417Z,10.80
2022-09-28T19:42:47.351Z,10.80
2022-09-28T19:45:15.273Z,10.70
2022-09-28T19:47:43.205Z,10.70
2022-09-28T19:50:12.545Z,10.70
2022-09-28T19:52:40.470Z,10.60
2022-09-28T19:55:09.252Z,10.60
2022-09-28T19:57:37.123Z,10.60
2022-09-28T20:00:05.748Z,10.60
2022-09-28T20:02:34.393Z,10.60
2022-09-28T20:05:02.407Z,10.60
2022-09-28T20:07:33.351Z,10.60
2022-09-28T20:10:01.230Z,10.50
2022-09-28T20:12:29.115Z,10.50
2022-09-28T20:14:56.997Z,10.50
2022-09-28T20:17:24.878Z,10.50
2022-09-28T20:19:53.073Z,10.50
2022-09-28T20:22:21.259Z,10.50
2022-09-28T20:24:50.651Z,10.50
2022-09-28T20:27:20.346Z,10.50
2022-09-28T20:29:49.898Z,10.50
2022-09-28T20:32:17.827Z,10.50
2022-09-28T20:34:45.751Z,10.50
2022-09-28T20:37:14.010Z,10.50
2022-09-28T20:39:44.935Z,10.60
2022-09-28T20:42:15.506Z,10.60
2022-09-28T20:44:43.842Z,10.60
2022-09-28T20:47:11.761Z,10.60
2022-09-28T20:49:39.623Z,10.60
2022-09-28T20:52:07.524Z,10.60
2022-09-28T20:54:35.416Z,10.60
2022-09-28T20:57:03.345Z,10.60
2022-09-28T20:59:32.694Z,10.60
2022-09-28T21:02:00.636Z,10.60
2022-09-28T21:04:28.631Z,10.60
2022-09-28T21:06:56.686Z,10.60
2022-09-28T21:09:24.764Z,10.60
2022-09-28T21:11:52.640Z,10.60
2022-09-28T21:14:20.767Z,10.70
2022-09-28T21:16:50.674Z,10.70
2022-09-28T21:19:18.820Z,10.70
2022-09-28T21:21:46.667Z,10.70
2022-09-28T21:24:14.644Z,10.70
2022-09-28T21:26:42.599Z,10.60
2022-09-28T21:29:14.083Z,10.70
2022-09-28T21:31:45.554Z,10.70
2022-09-28T21:34:19.270Z,10.70
2022-09-28T21:36:47.964Z,10.70
2022-09-28T21:39:16.096Z,10.70
2022-09-28T21:41:44.214Z,10.70
2022-09-28T21:44:12.589Z,10.70
2022-09-28T21:46:40.890Z,10.70
2022-09-28T21:49:12.599Z,10.70
2022-09-28T21:51:41.836Z,10.70
2022-09-28T21:54:09.894Z,10.80
2022-09-28T21:56:37.810Z,10.80
2022-09-28T21:59:05.797Z,10.80
2022-09-28T22:01:33.787Z,10.80
2022-09-28T22:04:02.063Z,10.80
2022-09-28T22:06:30.005Z,10.80
2022-09-28T22:08:59.473Z,10.80
2022-09-28T22:11:29.275Z,10.80
2022-09-28T22:13:58.721Z,10.70
2022-09-28T22:16:28.773Z,10.70
2022-09-28T22:18:57.416Z,10.70
2022-09-28T22:21:27.005Z,10.60
2022-09-28T22:23:55.194Z,10.60
2022-09-28T22:26:25.843Z,10.60
2022-09-28T22:28:55.269Z,10.60
2022-09-28T22:31:25.698Z,10.60
2022-09-28T22:33:53.744Z,10.50
2022-09-28T22:36:21.678Z,10.60
2022-09-28T22:38:50.625Z,10.60
2022-09-28T22:41:20.799Z,10.50
2022-09-28T22:43:51.249Z,10.50
2022-09-28T22:46:22.197Z,10.50
2022-09-28T22:48:52.537Z,10.50
2022-09-28T22:51:21.395Z,10.50
2022-09-28T22:53:49.623Z,10.50
2022-09-28T22:56:19.031Z,10.50
2022-09-28T22:58:48.888Z,10.50
2022-09-28T23:01:19.152Z,10.50
2022-09-28T23:03:47.476Z,10.50
2022-09-28T23:06:17.500Z,10.50
2022-09-28T23:08:47.232Z,10.50
2022-09-28T23:11:16.006Z,10.50
2022-09-28T23:13:44.422Z,10.40
2022-09-28T23:16:14.837Z,10.40
2022-09-28T23:18:43.615Z,10.40
2022-09-28T23:21:15.179Z,10.40
2022-09-28T23:23:43.164Z,10.40
2022-09-28T23:26:12.616Z,10.40
2022-09-28T23:28:40.847Z,10.40
2022-09-28T23:31:10.441Z,10.40
2022-09-28T23:33:39.683Z,10.40
2022-09-28T23:36:08.670Z,10.30
2022-09-28T23:38:36.787Z,10.30
2022-09-28T23:41:04.698Z,10.30
2022-09-28T23:43:32.910Z,10.30
2022-09-28T23:46:01.095Z,10.20
2022-09-28T23:48:29.015Z,10.20
2022-09-28T23:50:58.447Z,10.20
2022-09-28T23:53:26.685Z,10.20
2022-09-28T23:55:54.952Z,10.20
2022-09-28T23:58:22.821Z,10.10
